sensor_id;sensor_type;location;lat;lon;timestamp;P1;durP1;ratioP1;P2;durP2;ratioP2
10450;SDS011;5273;51.290;6.918;2023-07-31T00:01:57;10.63;;;4.32;;
10450;SDS011;5273;51.290;6.918;2023-07-31T00:04:24;11.88;;;4.47;;
10450;SDS011;5273;51.290;6.918;2023-07-31T00:06:51;9.73;;;3.70;;
10450;SDS011;5273;51.290;6.918;2023-07-31T00:09:18;8.25;;;3.90;;
10450;SDS011;5273;51.290;6.918;2023-07-31T00:11:45;10.07;;;4.32;;
10450;SDS011;5273;51.290;6.918;2023-07-31T00:14:11;9.55;;;3.83;;
10450;SDS011;5273;51.290;6.918;2023-07-31T00:16:40;8.40;;;4.38;;
10450;SDS011;5273;51.290;6.918;2023-07-31T00:19:06;10.57;;;4.32;;
10450;SDS011;5273;51.290;6.918;2023-07-31T00:21:33;7.85;;;4.00;;
10450;SDS011;5273;51.290;6.918;2023-07-31T00:24:00;9.75;;;4.15;;
10450;SDS011;5273;51.290;6.918;2023-07-31T00:26:27;11.82;;;4.10;;
10450;SDS011;5273;51.290;6.918;2023-07-31T00:28:53;8.85;;;4.43;;
10450;SDS011;5273;51.290;6.918;2023-07-31T00:31:20;6.82;;;3.80;;
10450;SDS011;5273;51.290;6.918;2023-07-31T00:33:48;10.00;;;4.07;;
10450;SDS011;5273;51.290;6.918;2023-07-31T00:36:15;10.50;;;3.78;;
10450;SDS011;5273;51.290;6.918;2023-07-31T00:38:43;9.98;;;4.35;;
10450;SDS011;5273;51.290;6.918;2023-07-31T00:41:09;11.90;;;4.93;;
10450;SDS011;5273;51.290;6.918;2023-07-31T00:43:36;9.40;;;4.13;;
10450;SDS011;5273;51.290;6.918;2023-07-31T00:46:03;6.40;;;4.05;;
10450;SDS011;5273;51.290;6.918;2023-07-31T00:48:30;12.40;;;3.85;;
10450;SDS011;5273;51.290;6.918;2023-07-31T00:51:00;8.30;;;3.78;;
10450;SDS011;5273;51.290;6.918;2023-07-31T00:53:27;10.95;;;4.22;;
10450;SDS011;5273;51.290;6.918;2023-07-31T00:55:54;8.70;;;3.70;;
10450;SDS011;5273;51.290;6.918;2023-07-31T00:58:20;7.50;;;4.30;;
10450;SDS011;5273;51.290;6.918;2023-07-31T01:00:47;6.18;;;3.72;;
10450;SDS011;5273;51.290;6.918;2023-07-31T01:03:15;7.68;;;3.83;;
10450;SDS011;5273;51.290;6.918;2023-07-31T01:05:45;10.43;;;4.15;;
10450;SDS011;5273;51.290;6.918;2023-07-31T01:08:18;10.63;;;3.60;;
10450;SDS011;5273;51.290;6.918;2023-07-31T01:10:50;12.55;;;4.10;;
10450;SDS011;5273;51.290;6.918;2023-07-31T01:13:20;9.35;;;3.95;;
10450;SDS011;5273;51.290;6.918;2023-07-31T01:15:48;7.65;;;3.58;;
10450;SDS011;5273;51.290;6.918;2023-07-31T01:18:14;9.07;;;3.60;;
10450;SDS011;5273;51.290;6.918;2023-07-31T01:20:42;6.63;;;3.33;;
10450;SDS011;5273;51.290;6.918;2023-07-31T01:23:22;8.40;;;3.92;;
10450;SDS011;5273;51.290;6.918;2023-07-31T01:26:04;10.02;;;3.70;;
10450;SDS011;5273;51.290;6.918;2023-07-31T01:28:39;9.23;;;3.88;;
10450;SDS011;5273;51.290;6.918;2023-07-31T01:31:14;6.30;;;3.60;;
10450;SDS011;5273;51.290;6.918;2023-07-31T01:33:43;9.38;;;3.63;;
10450;SDS011;5273;51.290;6.918;2023-07-31T01:36:11;7.85;;;4.18;;
10450;SDS011;5273;51.290;6.918;2023-07-31T01:38:38;8.93;;;3.35;;
10450;SDS011;5273;51.290;6.918;2023-07-31T01:41:06;8.82;;;4.15;;
10450;SDS011;5273;51.290;6.918;2023-07-31T01:43:33;6.70;;;3.85;;
10450;SDS011;5273;51.290;6.918;2023-07-31T01:46:00;7.95;;;3.55;;
10450;SDS011;5273;51.290;6.918;2023-07-31T01:48:27;8.45;;;3.85;;
10450;SDS011;5273;51.290;6.918;2023-07-31T01:50:54;7.50;;;3.72;;
10450;SDS011;5273;51.290;6.918;2023-07-31T01:53:20;8.45;;;3.90;;
10450;SDS011;5273;51.290;6.918;2023-07-31T01:55:47;9.48;;;3.88;;
10450;SDS011;5273;51.290;6.918;2023-07-31T01:58:15;8.30;;;3.65;;
10450;SDS011;5273;51.290;6.918;2023-07-31T02:00:42;8.00;;;4.05;;
10450;SDS011;5273;51.290;6.918;2023-07-31T02:03:09;8.05;;;4.07;;
10450;SDS011;5273;51.290;6.918;2023-07-31T02:05:35;9.77;;;3.78;;
10450;SDS011;5273;51.290;6.918;2023-07-31T02:08:02;9.48;;;3.90;;
10450;SDS011;5273;51.290;6.918;2023-07-31T02:10:29;10.25;;;4.22;;
10450;SDS011;5273;51.290;6.918;2023-07-31T02:12:56;11.27;;;4.07;;
10450;SDS011;5273;51.290;6.918;2023-07-31T02:15:24;14.55;;;3.88;;
10450;SDS011;5273;51.290;6.918;2023-07-31T02:17:51;12.25;;;4.70;;
10450;SDS011;5273;51.290;6.918;2023-07-31T02:20:18;8.25;;;4.05;;
10450;SDS011;5273;51.290;6.918;2023-07-31T02:22:45;10.68;;;4.03;;
10450;SDS011;5273;51.290;6.918;2023-07-31T02:25:12;9.88;;;3.80;;
10450;SDS011;5273;51.290;6.918;2023-07-31T02:27:38;12.75;;;4.32;;
10450;SDS011;5273;51.290;6.918;2023-07-31T02:30:06;11.35;;;4.07;;
10450;SDS011;5273;51.290;6.918;2023-07-31T02:32:34;6.13;;;3.97;;
10450;SDS011;5273;51.290;6.918;2023-07-31T02:35:01;9.38;;;4.40;;
10450;SDS011;5273;51.290;6.918;2023-07-31T02:37:28;13.90;;;3.95;;
10450;SDS011;5273;51.290;6.918;2023-07-31T02:39:55;8.75;;;3.95;;
10450;SDS011;5273;51.290;6.918;2023-07-31T02:42:22;8.13;;;4.10;;
10450;SDS011;5273;51.290;6.918;2023-07-31T02:44:49;9.07;;;4.20;;
10450;SDS011;5273;51.290;6.918;2023-07-31T02:47:20;9.88;;;3.80;;
10450;SDS011;5273;51.290;6.918;2023-07-31T02:49:48;12.95;;;4.55;;
10450;SDS011;5273;51.290;6.918;2023-07-31T02:52:15;8.65;;;3.92;;
10450;SDS011;5273;51.290;6.918;2023-07-31T02:54:42;7.60;;;3.75;;
10450;SDS011;5273;51.290;6.918;2023-07-31T02:57:09;10.13;;;4.03;;
10450;SDS011;5273;51.290;6.918;2023-07-31T02:59:36;11.18;;;3.97;;
10450;SDS011;5273;51.290;6.918;2023-07-31T03:02:03;11.32;;;4.35;;
10450;SDS011;5273;51.290;6.918;2023-07-31T03:04:30;7.55;;;3.50;;
10450;SDS011;5273;51.290;6.918;2023-07-31T03:06:58;10.82;;;4.35;;
10450;SDS011;5273;51.290;6.918;2023-07-31T03:09:25;7.18;;;3.97;;
10450;SDS011;5273;51.290;6.918;2023-07-31T03:11:52;5.82;;;3.50;;
10450;SDS011;5273;51.290;6.918;2023-07-31T03:14:24;10.55;;;3.72;;
10450;SDS011;5273;51.290;6.918;2023-07-31T03:16:52;7.85;;;4.20;;
10450;SDS011;5273;51.290;6.918;2023-07-31T03:19:19;8.60;;;4.03;;
10450;SDS011;5273;51.290;6.918;2023-07-31T03:21:46;12.65;;;4.30;;
10450;SDS011;5273;51.290;6.918;2023-07-31T03:24:14;9.90;;;4.28;;
10450;SDS011;5273;51.290;6.918;2023-07-31T03:26:41;7.32;;;3.55;;
10450;SDS011;5273;51.290;6.918;2023-07-31T03:29:07;10.32;;;3.83;;
10450;SDS011;5273;51.290;6.918;2023-07-31T03:31:34;8.35;;;3.78;;
10450;SDS011;5273;51.290;6.918;2023-07-31T03:34:01;7.32;;;3.78;;
10450;SDS011;5273;51.290;6.918;2023-07-31T03:36:28;8.68;;;3.85;;
10450;SDS011;5273;51.290;6.918;2023-07-31T03:38:55;7.15;;;3.63;;
10450;SDS011;5273;51.290;6.918;2023-07-31T03:41:23;7.70;;;3.88;;
10450;SDS011;5273;51.290;6.918;2023-07-31T03:43:50;8.55;;;3.97;;
10450;SDS011;5273;51.290;6.918;2023-07-31T03:46:18;8.43;;;4.15;;
10450;SDS011;5273;51.290;6.918;2023-07-31T03:48:45;8.23;;;4.13;;
10450;SDS011;5273;51.290;6.918;2023-07-31T03:51:11;4.95;;;3.33;;
10450;SDS011;5273;51.290;6.918;2023-07-31T03:53:38;6.70;;;4.05;;
10450;SDS011;5273;51.290;6.918;2023-07-31T03:56:05;10.18;;;3.85;;
10450;SDS011;5273;51.290;6.918;2023-07-31T03:58:33;7.07;;;3.80;;
10450;SDS011;5273;51.290;6.918;2023-07-31T04:01:01;8.48;;;3.78;;
10450;SDS011;5273;51.290;6.918;2023-07-31T04:03:27;10.73;;;4.15;;
10450;SDS011;5273;51.290;6.918;2023-07-31T04:05:55;10.95;;;4.10;;
10450;SDS011;5273;51.290;6.918;2023-07-31T04:08:22;9.95;;;4.72;;
10450;SDS011;5273;51.290;6.918;2023-07-31T04:10:48;9.70;;;4.10;;
10450;SDS011;5273;51.290;6.918;2023-07-31T04:13:15;8.27;;;4.10;;
10450;SDS011;5273;51.290;6.918;2023-07-31T04:15:44;7.15;;;3.85;;
10450;SDS011;5273;51.290;6.918;2023-07-31T04:18:14;11.18;;;4.47;;
10450;SDS011;5273;51.290;6.918;2023-07-31T04:20:41;15.45;;;4.30;;
10450;SDS011;5273;51.290;6.918;2023-07-31T04:23:08;8.00;;;4.22;;
10450;SDS011;5273;51.290;6.918;2023-07-31T04:25:35;6.18;;;4.15;;
10450;SDS011;5273;51.290;6.918;2023-07-31T04:28:02;8.13;;;4.60;;
10450;SDS011;5273;51.290;6.918;2023-07-31T04:30:29;8.20;;;4.40;;
10450;SDS011;5273;51.290;6.918;2023-07-31T04:32:57;12.75;;;4.20;;
10450;SDS011;5273;51.290;6.918;2023-07-31T04:35:23;7.43;;;4.00;;
10450;SDS011;5273;51.290;6.918;2023-07-31T04:37:50;6.30;;;3.80;;
10450;SDS011;5273;51.290;6.918;2023-07-31T04:40:17;9.48;;;4.43;;
10450;SDS011;5273;51.290;6.918;2023-07-31T04:42:44;9.65;;;4.80;;
10450;SDS011;5273;51.290;6.918;2023-07-31T04:45:11;8.18;;;3.90;;
10450;SDS011;5273;51.290;6.918;2023-07-31T04:47:38;8.88;;;4.05;;
10450;SDS011;5273;51.290;6.918;2023-07-31T04:50:07;10.85;;;4.47;;
10450;SDS011;5273;51.290;6.918;2023-07-31T04:52:34;7.90;;;4.30;;
10450;SDS011;5273;51.290;6.918;2023-07-31T04:55:01;8.82;;;4.03;;
10450;SDS011;5273;51.290;6.918;2023-07-31T04:57:27;8.82;;;3.80;;
10450;SDS011;5273;51.290;6.918;2023-07-31T04:59:54;9.90;;;4.20;;
10450;SDS011;5273;51.290;6.918;2023-07-31T05:02:21;10.50;;;4.82;;
10450;SDS011;5273;51.290;6.918;2023-07-31T05:04:49;9.45;;;4.43;;
10450;SDS011;5273;51.290;6.918;2023-07-31T05:07:17;9.70;;;4.28;;
10450;SDS011;5273;51.290;6.918;2023-07-31T05:09:44;8.73;;;4.45;;
10450;SDS011;5273;51.290;6.918;2023-07-31T05:12:11;9.65;;;4.88;;
10450;SDS011;5273;51.290;6.918;2023-07-31T05:14:38;13.05;;;5.07;;
10450;SDS011;5273;51.290;6.918;2023-07-31T05:17:05;13.57;;;4.90;;
10450;SDS011;5273;51.290;6.918;2023-07-31T05:19:31;7.93;;;4.25;;
10450;SDS011;5273;51.290;6.918;2023-07-31T05:21:58;9.00;;;4.47;;
10450;SDS011;5273;51.290;6.918;2023-07-31T05:24:26;8.60;;;4.82;;
10450;SDS011;5273;51.290;6.918;2023-07-31T05:26:53;9.00;;;4.18;;
10450;SDS011;5273;51.290;6.918;2023-07-31T05:29:20;6.10;;;4.47;;
10450;SDS011;5273;51.290;6.918;2023-07-31T05:31:47;6.72;;;4.00;;
10450;SDS011;5273;51.290;6.918;2023-07-31T05:34:13;10.88;;;4.78;;
10450;SDS011;5273;51.290;6.918;2023-07-31T05:36:40;7.15;;;4.18;;
10450;SDS011;5273;51.290;6.918;2023-07-31T05:39:07;9.32;;;4.07;;
10450;SDS011;5273;51.290;6.918;2023-07-31T05:41:36;7.78;;;4.05;;
10450;SDS011;5273;51.290;6.918;2023-07-31T05:44:03;6.05;;;4.45;;
10450;SDS011;5273;51.290;6.918;2023-07-31T05:46:30;7.53;;;4.43;;
10450;SDS011;5273;51.290;6.918;2023-07-31T05:48:57;7.63;;;4.40;;
10450;SDS011;5273;51.290;6.918;2023-07-31T05:51:25;7.72;;;4.57;;
10450;SDS011;5273;51.290;6.918;2023-07-31T05:53:52;8.10;;;4.40;;
10450;SDS011;5273;51.290;6.918;2023-07-31T05:56:19;5.70;;;4.25;;
10450;SDS011;5273;51.290;6.918;2023-07-31T05:58:47;5.80;;;3.88;;
10450;SDS011;5273;51.290;6.918;2023-07-31T06:01:15;7.72;;;4.30;;
10450;SDS011;5273;51.290;6.918;2023-07-31T06:03:42;6.18;;;4.25;;
10450;SDS011;5273;51.290;6.918;2023-07-31T06:06:09;6.60;;;4.10;;
10450;SDS011;5273;51.290;6.918;2023-07-31T06:08:38;9.88;;;4.10;;
10450;SDS011;5273;51.290;6.918;2023-07-31T06:11:05;7.10;;;4.55;;
10450;SDS011;5273;51.290;6.918;2023-07-31T06:13:34;6.18;;;4.40;;
10450;SDS011;5273;51.290;6.918;2023-07-31T06:16:02;8.45;;;4.38;;
10450;SDS011;5273;51.290;6.918;2023-07-31T06:18:30;5.90;;;3.95;;
10450;SDS011;5273;51.290;6.918;2023-07-31T06:20:57;7.00;;;4.55;;
10450;SDS011;5273;51.290;6.918;2023-07-31T06:23:24;6.82;;;4.25;;
10450;SDS011;5273;51.290;6.918;2023-07-31T06:25:51;9.77;;;3.95;;
10450;SDS011;5273;51.290;6.918;2023-07-31T06:28:17;10.10;;;4.78;;
10450;SDS011;5273;51.290;6.918;2023-07-31T06:30:44;5.05;;;3.75;;
10450;SDS011;5273;51.290;6.918;2023-07-31T06:33:12;7.70;;;4.10;;
10450;SDS011;5273;51.290;6.918;2023-07-31T06:35:39;9.68;;;4.22;;
10450;SDS011;5273;51.290;6.918;2023-07-31T06:38:06;8.05;;;4.50;;
10450;SDS011;5273;51.290;6.918;2023-07-31T06:40:33;8.18;;;4.53;;
10450;SDS011;5273;51.290;6.918;2023-07-31T06:42:59;7.55;;;4.57;;
10450;SDS011;5273;51.290;6.918;2023-07-31T06:45:32;11.93;;;4.47;;
10450;SDS011;5273;51.290;6.918;2023-07-31T06:48:00;8.15;;;4.35;;
10450;SDS011;5273;51.290;6.918;2023-07-31T06:50:28;6.85;;;4.50;;
10450;SDS011;5273;51.290;6.918;2023-07-31T06:52:55;9.07;;;4.53;;
10450;SDS011;5273;51.290;6.918;2023-07-31T06:55:22;10.10;;;4.07;;
10450;SDS011;5273;51.290;6.918;2023-07-31T06:57:50;6.63;;;3.90;;
10450;SDS011;5273;51.290;6.918;2023-07-31T07:00:18;7.70;;;4.00;;
10450;SDS011;5273;51.290;6.918;2023-07-31T07:02:46;5.60;;;3.78;;
10450;SDS011;5273;51.290;6.918;2023-07-31T07:05:13;7.57;;;4.28;;
10450;SDS011;5273;51.290;6.918;2023-07-31T07:07:42;6.13;;;3.72;;
10450;SDS011;5273;51.290;6.918;2023-07-31T07:10:09;6.95;;;3.58;;
10450;SDS011;5273;51.290;6.918;2023-07-31T07:12:36;7.03;;;4.18;;
10450;SDS011;5273;51.290;6.918;2023-07-31T07:15:03;6.10;;;3.65;;
10450;SDS011;5273;51.290;6.918;2023-07-31T07:17:31;6.28;;;4.20;;
10450;SDS011;5273;51.290;6.918;2023-07-31T07:19:58;5.50;;;3.95;;
10450;SDS011;5273;51.290;6.918;2023-07-31T07:22:25;6.75;;;4.00;;
10450;SDS011;5273;51.290;6.918;2023-07-31T07:24:53;9.38;;;4.43;;
10450;SDS011;5273;51.290;6.918;2023-07-31T07:27:21;8.15;;;4.28;;
10450;SDS011;5273;51.290;6.918;2023-07-31T07:29:49;5.85;;;4.30;;
10450;SDS011;5273;51.290;6.918;2023-07-31T07:32:17;9.13;;;4.43;;
10450;SDS011;5273;51.290;6.918;2023-07-31T07:34:44;7.60;;;4.03;;
10450;SDS011;5273;51.290;6.918;2023-07-31T07:37:11;13.00;;;4.07;;
10450;SDS011;5273;51.290;6.918;2023-07-31T07:39:38;8.02;;;3.90;;
10450;SDS011;5273;51.290;6.918;2023-07-31T07:42:06;6.43;;;3.85;;
10450;SDS011;5273;51.290;6.918;2023-07-31T07:44:33;7.40;;;4.03;;
10450;SDS011;5273;51.290;6.918;2023-07-31T07:47:00;5.38;;;3.78;;
10450;SDS011;5273;51.290;6.918;2023-07-31T07:49:26;10.10;;;4.38;;
10450;SDS011;5273;51.290;6.918;2023-07-31T07:51:53;7.63;;;4.07;;
10450;SDS011;5273;51.290;6.918;2023-07-31T07:54:20;7.13;;;3.95;;
10450;SDS011;5273;51.290;6.918;2023-07-31T07:56:47;8.88;;;4.18;;
10450;SDS011;5273;51.290;6.918;2023-07-31T07:59:16;5.35;;;3.65;;
10450;SDS011;5273;51.290;6.918;2023-07-31T08:01:42;6.97;;;3.47;;
10450;SDS011;5273;51.290;6.918;2023-07-31T08:04:09;5.72;;;3.63;;
10450;SDS011;5273;51.290;6.918;2023-07-31T08:06:36;4.90;;;3.63;;
10450;SDS011;5273;51.290;6.918;2023-07-31T08:09:03;8.10;;;3.58;;
10450;SDS011;5273;51.290;6.918;2023-07-31T08:11:31;6.63;;;3.60;;
10450;SDS011;5273;51.290;6.918;2023-07-31T08:13:58;7.00;;;3.78;;
10450;SDS011;5273;51.290;6.918;2023-07-31T08:16:26;6.57;;;3.17;;
10450;SDS011;5273;51.290;6.918;2023-07-31T08:18:53;8.30;;;3.78;;
10450;SDS011;5273;51.290;6.918;2023-07-31T08:21:20;6.95;;;3.20;;
10450;SDS011;5273;51.290;6.918;2023-07-31T08:23:47;5.93;;;3.55;;
10450;SDS011;5273;51.290;6.918;2023-07-31T08:26:14;6.70;;;3.08;;
10450;SDS011;5273;51.290;6.918;2023-07-31T08:28:42;7.45;;;3.00;;
10450;SDS011;5273;51.290;6.918;2023-07-31T08:31:09;6.75;;;3.22;;
10450;SDS011;5273;51.290;6.918;2023-07-31T08:33:37;4.88;;;3.30;;
10450;SDS011;5273;51.290;6.918;2023-07-31T08:36:05;5.07;;;3.17;;
10450;SDS011;5273;51.290;6.918;2023-07-31T08:38:32;7.35;;;3.40;;
10450;SDS011;5273;51.290;6.918;2023-07-31T08:40:59;4.97;;;3.35;;
10450;SDS011;5273;51.290;6.918;2023-07-31T08:43:26;6.22;;;3.22;;
10450;SDS011;5273;51.290;6.918;2023-07-31T08:45:53;7.65;;;3.08;;
10450;SDS011;5273;51.290;6.918;2023-07-31T08:48:21;9.95;;;3.55;;
10450;SDS011;5273;51.290;6.918;2023-07-31T08:50:50;7.03;;;3.40;;
10450;SDS011;5273;51.290;6.918;2023-07-31T08:53:18;5.85;;;3.40;;
10450;SDS011;5273;51.290;6.918;2023-07-31T08:55:45;5.45;;;3.47;;
10450;SDS011;5273;51.290;6.918;2023-07-31T08:58:13;5.55;;;3.13;;
10450;SDS011;5273;51.290;6.918;2023-07-31T09:00:40;5.03;;;3.45;;
10450;SDS011;5273;51.290;6.918;2023-07-31T09:03:10;5.03;;;3.38;;
10450;SDS011;5273;51.290;6.918;2023-07-31T09:05:41;4.35;;;3.10;;
10450;SDS011;5273;51.290;6.918;2023-07-31T09:08:10;3.25;;;2.95;;
10450;SDS011;5273;51.290;6.918;2023-07-31T09:10:40;5.22;;;3.20;;
10450;SDS011;5273;51.290;6.918;2023-07-31T09:13:07;4.90;;;2.95;;
10450;SDS011;5273;51.290;6.918;2023-07-31T09:15:35;5.28;;;3.17;;
10450;SDS011;5273;51.290;6.918;2023-07-31T09:18:02;3.58;;;2.95;;
10450;SDS011;5273;51.290;6.918;2023-07-31T09:20:30;6.85;;;3.22;;
10450;SDS011;5273;51.290;6.918;2023-07-31T09:23:01;3.88;;;2.47;;
10450;SDS011;5273;51.290;6.918;2023-07-31T09:25:33;4.43;;;3.17;;
10450;SDS011;5273;51.290;6.918;2023-07-31T09:28:01;4.90;;;3.03;;
10450;SDS011;5273;51.290;6.918;2023-07-31T09:30:29;5.45;;;2.97;;
10450;SDS011;5273;51.290;6.918;2023-07-31T09:33:00;5.28;;;3.42;;
10450;SDS011;5273;51.290;6.918;2023-07-31T09:35:30;3.83;;;3.10;;
10450;SDS011;5273;51.290;6.918;2023-07-31T09:37:58;4.72;;;2.97;;
10450;SDS011;5273;51.290;6.918;2023-07-31T09:40:27;4.32;;;3.40;;
10450;SDS011;5273;51.290;6.918;2023-07-31T09:42:59;6.20;;;3.10;;
10450;SDS011;5273;51.290;6.918;2023-07-31T09:45:27;5.88;;;3.67;;
10450;SDS011;5273;51.290;6.918;2023-07-31T09:47:55;4.45;;;2.83;;
10450;SDS011;5273;51.290;6.918;2023-07-31T09:50:23;4.72;;;3.40;;
10450;SDS011;5273;51.290;6.918;2023-07-31T09:52:51;4.93;;;3.00;;
10450;SDS011;5273;51.290;6.918;2023-07-31T09:55:18;4.78;;;3.10;;
10450;SDS011;5273;51.290;6.918;2023-07-31T09:57:46;7.50;;;2.95;;
10450;SDS011;5273;51.290;6.918;2023-07-31T10:00:16;5.38;;;3.05;;
10450;SDS011;5273;51.290;6.918;2023-07-31T10:02:45;4.32;;;2.92;;
10450;SDS011;5273;51.290;6.918;2023-07-31T10:05:13;4.55;;;2.78;;
10450;SDS011;5273;51.290;6.918;2023-07-31T10:07:42;4.82;;;3.05;;
10450;SDS011;5273;51.290;6.918;2023-07-31T10:10:11;5.22;;;3.10;;
10450;SDS011;5273;51.290;6.918;2023-07-31T10:12:39;7.28;;;3.40;;
10450;SDS011;5273;51.290;6.918;2023-07-31T10:15:07;5.82;;;3.20;;
10450;SDS011;5273;51.290;6.918;2023-07-31T10:17:37;5.50;;;3.50;;
10450;SDS011;5273;51.290;6.918;2023-07-31T10:20:04;5.55;;;3.42;;
10450;SDS011;5273;51.290;6.918;2023-07-31T10:22:33;4.57;;;3.25;;
10450;SDS011;5273;51.290;6.918;2023-07-31T10:25:00;6.28;;;3.40;;
10450;SDS011;5273;51.290;6.918;2023-07-31T10:27:27;4.65;;;2.95;;
10450;SDS011;5273;51.290;6.918;2023-07-31T10:29:55;4.53;;;3.17;;
10450;SDS011;5273;51.290;6.918;2023-07-31T10:32:23;5.35;;;3.30;;
10450;SDS011;5273;51.290;6.918;2023-07-31T10:34:52;5.03;;;3.40;;
10450;SDS011;5273;51.290;6.918;2023-07-31T10:37:21;6.25;;;3.17;;
10450;SDS011;5273;51.290;6.918;2023-07-31T10:39:56;4.70;;;3.22;;
10450;SDS011;5273;51.290;6.918;2023-07-31T10:42:27;4.47;;;3.05;;
10450;SDS011;5273;51.290;6.918;2023-07-31T10:44:56;6.10;;;3.65;;
10450;SDS011;5273;51.290;6.918;2023-07-31T10:47:24;4.95;;;3.17;;
10450;SDS011;5273;51.290;6.918;2023-07-31T10:49:52;6.88;;;3.83;;
10450;SDS011;5273;51.290;6.918;2023-07-31T10:52:19;6.10;;;3.03;;
10450;SDS011;5273;51.290;6.918;2023-07-31T10:54:48;5.47;;;3.28;;
10450;SDS011;5273;51.290;6.918;2023-07-31T10:57:19;4.50;;;3.08;;
10450;SDS011;5273;51.290;6.918;2023-07-31T10:59:47;4.45;;;2.95;;
10450;SDS011;5273;51.290;6.918;2023-07-31T11:02:24;5.25;;;3.53;;
10450;SDS011;5273;51.290;6.918;2023-07-31T11:07:46;4.43;;;2.88;;
10450;SDS011;5273;51.290;6.918;2023-07-31T11:10:15;4.22;;;3.08;;
10450;SDS011;5273;51.290;6.918;2023-07-31T11:12:44;6.13;;;3.10;;
10450;SDS011;5273;51.290;6.918;2023-07-31T11:15:11;4.97;;;2.75;;
10450;SDS011;5273;51.290;6.918;2023-07-31T11:17:38;3.05;;;2.65;;
10450;SDS011;5273;51.290;6.918;2023-07-31T11:20:05;6.68;;;2.83;;
10450;SDS011;5273;51.290;6.918;2023-07-31T11:22:35;3.00;;;2.38;;
10450;SDS011;5273;51.290;6.918;2023-07-31T11:25:02;3.00;;;2.22;;
10450;SDS011;5273;51.290;6.918;2023-07-31T11:27:30;4.75;;;2.15;;
10450;SDS011;5273;51.290;6.918;2023-07-31T11:30:00;2.40;;;2.08;;
10450;SDS011;5273;51.290;6.918;2023-07-31T11:32:27;2.65;;;2.33;;
10450;SDS011;5273;51.290;6.918;2023-07-31T11:34:54;2.47;;;2.10;;
10450;SDS011;5273;51.290;6.918;2023-07-31T11:37:22;2.40;;;2.00;;
10450;SDS011;5273;51.290;6.918;2023-07-31T11:39:59;4.45;;;2.13;;
10450;SDS011;5273;51.290;6.918;2023-07-31T11:42:26;2.90;;;1.80;;
10450;SDS011;5273;51.290;6.918;2023-07-31T11:44:53;3.15;;;1.80;;
10450;SDS011;5273;51.290;6.918;2023-07-31T11:47:20;1.70;;;1.60;;
10450;SDS011;5273;51.290;6.918;2023-07-31T11:49:47;2.08;;;1.85;;
10450;SDS011;5273;51.290;6.918;2023-07-31T11:52:15;4.18;;;2.00;;
10450;SDS011;5273;51.290;6.918;2023-07-31T11:54:42;3.78;;;1.90;;
10450;SDS011;5273;51.290;6.918;2023-07-31T11:57:10;4.40;;;2.00;;
10450;SDS011;5273;51.290;6.918;2023-07-31T11:59:38;2.70;;;1.50;;
10450;SDS011;5273;51.290;6.918;2023-07-31T12:02:07;1.85;;;1.05;;
10450;SDS011;5273;51.290;6.918;2023-07-31T12:04:34;1.60;;;1.50;;
10450;SDS011;5273;51.290;6.918;2023-07-31T12:07:02;3.42;;;1.63;;
10450;SDS011;5273;51.290;6.918;2023-07-31T12:09:29;6.53;;;1.98;;
10450;SDS011;5273;51.290;6.918;2023-07-31T12:11:56;3.92;;;1.95;;
10450;SDS011;5273;51.290;6.918;2023-07-31T12:14:25;1.85;;;1.60;;
10450;SDS011;5273;51.290;6.918;2023-07-31T12:17:03;1.83;;;1.60;;
10450;SDS011;5273;51.290;6.918;2023-07-31T12:19:36;2.17;;;1.83;;
10450;SDS011;5273;51.290;6.918;2023-07-31T12:22:10;2.90;;;1.80;;
10450;SDS011;5273;51.290;6.918;2023-07-31T12:24:38;2.00;;;1.83;;
10450;SDS011;5273;51.290;6.918;2023-07-31T12:27:08;4.45;;;1.40;;
10450;SDS011;5273;51.290;6.918;2023-07-31T12:29:37;1.88;;;1.60;;
10450;SDS011;5273;51.290;6.918;2023-07-31T12:32:23;2.58;;;1.60;;
10450;SDS011;5273;51.290;6.918;2023-07-31T12:34:59;1.80;;;1.70;;
10450;SDS011;5273;51.290;6.918;2023-07-31T12:37:32;2.35;;;1.92;;
10450;SDS011;5273;51.290;6.918;2023-07-31T12:40:06;2.95;;;1.60;;
10450;SDS011;5273;51.290;6.918;2023-07-31T12:42:47;1.90;;;1.80;;
10450;SDS011;5273;51.290;6.918;2023-07-31T12:45:21;1.60;;;1.50;;
10450;SDS011;5273;51.290;6.918;2023-07-31T12:47:56;2.60;;;1.92;;
10450;SDS011;5273;51.290;6.918;2023-07-31T12:50:29;3.60;;;1.90;;
10450;SDS011;5273;51.290;6.918;2023-07-31T12:53:06;2.03;;;1.85;;
10450;SDS011;5273;51.290;6.918;2023-07-31T12:55:39;2.10;;;1.77;;
10450;SDS011;5273;51.290;6.918;2023-07-31T12:58:17;4.05;;;2.10;;
10450;SDS011;5273;51.290;6.918;2023-07-31T13:00:54;2.05;;;1.70;;
10450;SDS011;5273;51.290;6.918;2023-07-31T13:03:35;2.08;;;1.88;;
10450;SDS011;5273;51.290;6.918;2023-07-31T13:06:10;3.55;;;1.95;;
10450;SDS011;5273;51.290;6.918;2023-07-31T13:08:48;2.15;;;1.98;;
10450;SDS011;5273;51.290;6.918;2023-07-31T13:11:17;2.58;;;2.22;;
10450;SDS011;5273;51.290;6.918;2023-07-31T13:13:53;2.72;;;1.98;;
10450;SDS011;5273;51.290;6.918;2023-07-31T13:16:24;2.40;;;1.92;;
10450;SDS011;5273;51.290;6.918;2023-07-31T13:18:59;4.47;;;2.55;;
10450;SDS011;5273;51.290;6.918;2023-07-31T13:21:26;2.83;;;2.10;;
10450;SDS011;5273;51.290;6.918;2023-07-31T13:24:01;3.75;;;2.63;;
10450;SDS011;5273;51.290;6.918;2023-07-31T13:26:33;3.80;;;2.42;;
10450;SDS011;5273;51.290;6.918;2023-07-31T13:29:08;4.20;;;2.85;;
10450;SDS011;5273;51.290;6.918;2023-07-31T13:31:43;3.30;;;2.92;;
10450;SDS011;5273;51.290;6.918;2023-07-31T13:34:28;8.15;;;2.83;;
10450;SDS011;5273;51.290;6.918;2023-07-31T13:37:04;5.78;;;3.20;;
10450;SDS011;5273;51.290;6.918;2023-07-31T13:39:31;4.93;;;3.08;;
10450;SDS011;5273;51.290;6.918;2023-07-31T13:41:58;5.63;;;2.72;;
10450;SDS011;5273;51.290;6.918;2023-07-31T13:44:25;6.05;;;3.00;;
10450;SDS011;5273;51.290;6.918;2023-07-31T13:46:54;3.20;;;2.50;;
10450;SDS011;5273;51.290;6.918;2023-07-31T13:49:20;3.45;;;2.45;;
10450;SDS011;5273;51.290;6.918;2023-07-31T13:51:47;3.38;;;2.60;;
10450;SDS011;5273;51.290;6.918;2023-07-31T13:54:14;3.78;;;2.70;;
10450;SDS011;5273;51.290;6.918;2023-07-31T13:56:42;3.72;;;3.00;;
10450;SDS011;5273;51.290;6.918;2023-07-31T13:59:09;3.78;;;2.83;;
10450;SDS011;5273;51.290;6.918;2023-07-31T14:01:36;4.18;;;2.97;;
10450;SDS011;5273;51.290;6.918;2023-07-31T14:04:04;4.20;;;2.60;;
10450;SDS011;5273;51.290;6.918;2023-07-31T14:06:31;3.30;;;2.72;;
10450;SDS011;5273;51.290;6.918;2023-07-31T14:08:58;4.35;;;3.15;;
10450;SDS011;5273;51.290;6.918;2023-07-31T14:11:25;8.55;;;3.10;;
10450;SDS011;5273;51.290;6.918;2023-07-31T14:13:52;3.72;;;2.35;;
10450;SDS011;5273;51.290;6.918;2023-07-31T14:16:19;3.13;;;2.53;;
10450;SDS011;5273;51.290;6.918;2023-07-31T14:18:46;2.60;;;2.40;;
10450;SDS011;5273;51.290;6.918;2023-07-31T14:21:14;3.40;;;2.38;;
10450;SDS011;5273;51.290;6.918;2023-07-31T14:23:41;3.78;;;2.45;;
10450;SDS011;5273;51.290;6.918;2023-07-31T14:26:08;3.92;;;2.65;;
10450;SDS011;5273;51.290;6.918;2023-07-31T14:28:35;4.75;;;2.70;;
10450;SDS011;5273;51.290;6.918;2023-07-31T14:31:02;5.88;;;2.97;;
10450;SDS011;5273;51.290;6.918;2023-07-31T14:33:29;4.97;;;2.88;;
10450;SDS011;5273;51.290;6.918;2023-07-31T14:35:56;5.35;;;2.78;;
10450;SDS011;5273;51.290;6.918;2023-07-31T14:38:24;3.75;;;2.70;;
10450;SDS011;5273;51.290;6.918;2023-07-31T14:40:50;5.00;;;2.80;;
10450;SDS011;5273;51.290;6.918;2023-07-31T14:43:17;2.67;;;2.33;;
10450;SDS011;5273;51.290;6.918;2023-07-31T14:45:44;3.80;;;2.50;;
10450;SDS011;5273;51.290;6.918;2023-07-31T14:48:12;4.07;;;2.35;;
10450;SDS011;5273;51.290;6.918;2023-07-31T14:50:39;4.65;;;3.05;;
10450;SDS011;5273;51.290;6.918;2023-07-31T14:53:06;4.50;;;3.13;;
10450;SDS011;5273;51.290;6.918;2023-07-31T14:55:34;6.72;;;2.90;;
10450;SDS011;5273;51.290;6.918;2023-07-31T14:58:01;3.70;;;2.90;;
10450;SDS011;5273;51.290;6.918;2023-07-31T15:00:28;3.28;;;2.97;;
10450;SDS011;5273;51.290;6.918;2023-07-31T15:02:55;5.07;;;3.40;;
10450;SDS011;5273;51.290;6.918;2023-07-31T15:05:21;4.05;;;3.05;;
10450;SDS011;5273;51.290;6.918;2023-07-31T15:07:48;5.80;;;3.42;;
10450;SDS011;5273;51.290;6.918;2023-07-31T15:10:15;4.47;;;3.45;;